Time;durP1;ratioP1;P1;durP2;ratioP2;P2;SDS_P1;SDS_P2;PMS_P1;PMS_P2;Temp;Humidity;BMP_temperature;BMP_pressure;BME280_temperature;BME280_humidity;BME280_pressure;Samples;Min_cycle;Max_cycle;Signal;HPM_P1;HPM_P2
2023/06/27 00:00:30;;;;;;;8.90;3.30;;;;;;;;;;4956511;29;20395;-84
2023/06/27 00:02:58;;;;;;;2.37;1.93;;;;;;;;;;4955141;28;20420;-84
2023/06/27 00:05:24;;;;;;;2.40;1.70;;;;;;;;;;4939965;29;20884;-84
2023/06/27 00:07:50;;;;;;;2.10;1.90;;;;;;;;;;4955089;28;20455;-84
2023/06/27 00:10:16;;;;;;;6.60;1.97;;;;;;;;;;4955338;28;20731;-84
2023/06/27 00:12:44;;;;;;;4.20;1.87;;;;;;;;;;4955022;28;20413;-84
2023/06/27 00:15:10;;;;;;;2.33;2.10;;;;;;;;;;4939676;29;20528;-83
2023/06/27 00:17:37;;;;;;;8.53;2.10;;;;;;;;;;4954787;28;20398;-84
2023/06/27 00:20:03;;;;;;;2.50;1.67;;;;;;;;;;4955067;29;20424;-84
2023/06/27 00:22:30;;;;;;;2.60;1.80;;;;;;;;;;4955427;29;20747;-84
2023/06/27 00:24:56;;;;;;;4.53;1.97;;;;;;;;;;4956154;29;20463;-83
2023/06/27 00:27:22;;;;;;;2.90;1.90;;;;;;;;;;4954929;29;20947;-84
2023/06/27 00:29:49;;;;;;;3.83;2.47;;;;;;;;;;4955707;29;20741;-84
2023/06/27 00:32:14;;;;;;;2.80;2.00;;;;;;;;;;4938928;29;20398;-84
2023/06/27 00:34:41;;;;;;;3.77;2.67;;;;;;;;;;4955868;29;20412;-84
2023/06/27 00:37:06;;;;;;;2.27;1.90;;;;;;;;;;4939004;29;20424;-84
2023/06/27 00:39:32;;;;;;;2.70;2.00;;;;;;;;;;4954631;28;20830;-84
2023/06/27 00:41:58;;;;;;;2.10;1.80;;;;;;;;;;4954608;29;20488;-83
2023/06/27 00:44:24;;;;;;;3.00;1.90;;;;;;;;;;4956051;29;20504;-84
2023/06/27 00:46:51;;;;;;;1.97;1.80;;;;;;;;;;4938623;29;20436;-84
2023/06/27 00:49:19;;;;;;;6.07;2.60;;;;;;;;;;4955688;29;20409;-84
2023/06/27 00:51:45;;;;;;;3.67;2.10;;;;;;;;;;4956472;28;20424;-84
2023/06/27 00:54:11;;;;;;;2.90;2.20;;;;;;;;;;4958190;28;20443;-84
2023/06/27 00:56:37;;;;;;;5.00;1.80;;;;;;;;;;4958384;28;20455;-84
2023/06/27 00:59:03;;;;;;;2.10;1.80;;;;;;;;;;4942577;29;20478;-84
2023/06/27 01:01:29;;;;;;;1.97;1.70;;;;;;;;;;4959231;29;20464;-84
2023/06/27 01:03:55;;;;;;;3.43;2.23;;;;;;;;;;4925918;29;20921;-84
2023/06/27 01:06:24;;;;;;;9.40;2.20;;;;;;;;;;4942224;29;20486;-84
2023/06/27 01:08:53;;;;;;;3.17;1.73;;;;;;;;;;4958776;29;20404;-84
2023/06/27 01:11:22;;;;;;;7.67;2.70;;;;;;;;;;4957818;28;20435;-84
2023/06/27 01:13:49;;;;;;;4.33;2.00;;;;;;;;;;4957606;29;20814;-84
2023/06/27 01:16:16;;;;;;;3.17;2.40;;;;;;;;;;4957797;29;20483;-84
2023/06/27 01:18:43;;;;;;;5.77;1.93;;;;;;;;;;4957618;28;20383;-85
2023/06/27 01:21:09;;;;;;;2.97;2.17;;;;;;;;;;4926594;29;20833;-84
2023/06/27 01:23:48;;;;;;;4.80;2.40;;;;;;;;;;4925905;29;20918;-84
2023/06/27 01:26:16;;;;;;;4.40;2.20;;;;;;;;;;4957848;29;20464;-84
2023/06/27 01:28:42;;;;;;;2.83;1.90;;;;;;;;;;4958920;29;20459;-84
2023/06/27 01:31:08;;;;;;;2.67;1.90;;;;;;;;;;4941603;29;20388;-84
2023/06/27 01:33:49;;;;;;;3.00;2.03;;;;;;;;;;4957416;29;20472;-84
2023/06/27 01:36:28;;;;;;;5.00;1.90;;;;;;;;;;4957450;29;20399;-84
2023/06/27 01:38:57;;;;;;;2.63;2.10;;;;;;;;;;4958230;29;20491;-84
2023/06/27 01:41:24;;;;;;;3.50;2.33;;;;;;;;;;4958427;29;20478;-84
2023/06/27 01:43:51;;;;;;;3.60;2.30;;;;;;;;;;4958290;29;20408;-84
2023/06/27 01:46:17;;;;;;;2.60;2.00;;;;;;;;;;4958714;29;20423;-84
2023/06/27 01:48:44;;;;;;;4.90;1.97;;;;;;;;;;4957029;28;21000;-84
2023/06/27 01:51:10;;;;;;;3.50;2.03;;;;;;;;;;4957307;29;20421;-84
2023/06/27 01:53:36;;;;;;;2.67;2.10;;;;;;;;;;4957033;28;20464;-84
2023/06/27 01:56:03;;;;;;;2.30;2.10;;;;;;;;;;4957862;29;20767;-84
2023/06/27 01:58:30;;;;;;;4.60;2.20;;;;;;;;;;4957046;28;20420;-84
2023/06/27 02:00:56;;;;;;;3.33;2.17;;;;;;;;;;4925384;29;20429;-84
2023/06/27 02:03:21;;;;;;;5.70;2.30;;;;;;;;;;4939966;29;20421;-85
2023/06/27 02:05:47;;;;;;;5.93;2.37;;;;;;;;;;4956489;28;20538;-84
2023/06/27 02:08:13;;;;;;;2.90;2.40;;;;;;;;;;4941125;29;20440;-84
2023/06/27 02:10:39;;;;;;;3.80;2.10;;;;;;;;;;4940794;29;20409;-84
2023/06/27 02:13:05;;;;;;;2.80;2.20;;;;;;;;;;4924896;29;20459;-84
2023/06/27 02:15:31;;;;;;;5.10;2.33;;;;;;;;;;4940658;29;20792;-84
2023/06/27 02:17:59;;;;;;;4.00;2.30;;;;;;;;;;4956243;28;20472;-84
2023/06/27 02:20:26;;;;;;;3.27;2.30;;;;;;;;;;4957177;29;20394;-84
2023/06/27 02:22:51;;;;;;;3.70;2.00;;;;;;;;;;4956650;29;20425;-84
2023/06/27 02:25:17;;;;;;;2.37;2.17;;;;;;;;;;4940860;29;20460;-84
2023/06/27 02:27:43;;;;;;;5.80;2.27;;;;;;;;;;4956334;28;20824;-84
2023/06/27 02:30:10;;;;;;;3.07;2.40;;;;;;;;;;4957593;29;20432;-84
2023/06/27 02:32:36;;;;;;;2.00;1.80;;;;;;;;;;4940483;29;20432;-84
2023/06/27 02:35:02;;;;;;;4.27;2.20;;;;;;;;;;4956049;28;20568;-84
2023/06/27 02:37:28;;;;;;;3.37;2.40;;;;;;;;;;4956233;28;20464;-84
2023/06/27 02:39:54;;;;;;;3.00;2.20;;;;;;;;;;4940566;29;20810;-84
2023/06/27 02:42:20;;;;;;;2.87;2.60;;;;;;;;;;4965503;29;20492;-84
2023/06/27 02:44:48;;;;;;;3.30;2.53;;;;;;;;;;4960661;29;20476;-84
2023/06/27 02:47:14;;;;;;;4.10;2.40;;;;;;;;;;4959837;29;20413;-84
2023/06/27 02:49:42;;;;;;;2.70;2.50;;;;;;;;;;4957429;28;20411;-84
2023/06/27 02:52:08;;;;;;;3.23;2.93;;;;;;;;;;4957521;29;20755;-84
2023/06/27 02:54:34;;;;;;;3.30;2.50;;;;;;;;;;4958018;29;20475;-84
2023/06/27 02:57:00;;;;;;;7.73;3.40;;;;;;;;;;4957286;29;20405;-84
2023/06/27 02:59:26;;;;;;;3.37;2.77;;;;;;;;;;4956364;28;20426;-84
2023/06/27 03:01:52;;;;;;;2.97;2.30;;;;;;;;;;4956123;28;20425;-84
2023/06/27 03:04:21;;;;;;;5.17;2.60;;;;;;;;;;4940933;29;20460;-84
2023/06/27 03:06:47;;;;;;;4.50;2.90;;;;;;;;;;4957605;29;20410;-85
2023/06/27 03:09:13;;;;;;;6.47;3.10;;;;;;;;;;4956481;28;20428;-84
2023/06/27 03:11:39;;;;;;;6.30;2.87;;;;;;;;;;4957551;29;20458;-84
2023/06/27 03:14:05;;;;;;;4.10;2.63;;;;;;;;;;4956985;28;20790;-84
2023/06/27 03:16:31;;;;;;;4.50;2.87;;;;;;;;;;4957359;29;20420;-84
2023/06/27 03:18:57;;;;;;;3.50;2.77;;;;;;;;;;4955761;28;20955;-84
2023/06/27 03:21:23;;;;;;;10.83;3.67;;;;;;;;;;4923981;29;20837;-84
2023/06/27 03:23:49;;;;;;;3.50;2.50;;;;;;;;;;4924127;29;20421;-85
2023/06/27 03:26:15;;;;;;;4.47;2.60;;;;;;;;;;4957049;29;20538;-84
2023/06/27 03:28:41;;;;;;;4.13;2.70;;;;;;;;;;4939934;29;20753;-84
2023/06/27 03:31:07;;;;;;;10.90;3.30;;;;;;;;;;4924195;29;20491;-84
2023/06/27 03:33:33;;;;;;;5.07;2.70;;;;;;;;;;4939820;29;20901;-84
2023/06/27 03:35:59;;;;;;;6.90;2.70;;;;;;;;;;4923469;29;20420;-85
2023/06/27 03:38:25;;;;;;;3.07;2.60;;;;;;;;;;4956586;29;20424;-84
2023/06/27 03:40:51;;;;;;;4.20;2.50;;;;;;;;;;4955385;28;20490;-84
2023/06/27 03:43:17;;;;;;;16.03;3.60;;;;;;;;;;4955109;28;20403;-84
2023/06/27 03:45:43;;;;;;;5.30;2.93;;;;;;;;;;4956856;29;20471;-84
2023/06/27 03:48:09;;;;;;;5.90;2.30;;;;;;;;;;4956080;29;20412;-84
2023/06/27 03:50:36;;;;;;;5.60;2.70;;;;;;;;;;4923329;29;20424;-84
2023/06/27 03:53:03;;;;;;;6.63;3.40;;;;;;;;;;4939317;28;20487;-84
2023/06/27 03:55:29;;;;;;;3.80;3.40;;;;;;;;;;4955360;28;20425;-84
2023/06/27 03:57:55;;;;;;;7.27;3.30;;;;;;;;;;4955184;28;20524;-84
2023/06/27 04:00:21;;;;;;;4.93;2.97;;;;;;;;;;4955224;29;20504;-84
2023/06/27 04:02:47;;;;;;;3.63;2.80;;;;;;;;;;4956211;29;20418;-83
2023/06/27 04:05:13;;;;;;;7.47;3.60;;;;;;;;;;4954880;28;20483;-84
2023/06/27 04:07:41;;;;;;;4.13;3.40;;;;;;;;;;4955240;28;20471;-84
2023/06/27 04:10:07;;;;;;;3.40;3.10;;;;;;;;;;4923053;29;20395;-84
2023/06/27 04:12:33;;;;;;;7.23;3.10;;;;;;;;;;4956029;29;20887;-84
2023/06/27 04:14:59;;;;;;;4.10;3.13;;;;;;;;;;4922680;29;20475;-84
2023/06/27 04:17:25;;;;;;;3.53;3.23;;;;;;;;;;4954607;29;20424;-84
2023/06/27 04:19:51;;;;;;;5.83;2.97;;;;;;;;;;4954405;28;20519;-85
2023/06/27 04:22:17;;;;;;;3.97;3.00;;;;;;;;;;4954641;29;20800;-84
2023/06/27 04:24:43;;;;;;;8.00;3.30;;;;;;;;;;4938927;29;20480;-84
2023/06/27 04:27:09;;;;;;;5.93;3.10;;;;;;;;;;4958610;28;20416;-83
2023/06/27 04:29:35;;;;;;;8.80;3.70;;;;;;;;;;4958737;29;20439;-84
2023/06/27 04:32:01;;;;;;;4.90;3.60;;;;;;;;;;4959286;29;20409;-84
2023/06/27 04:34:27;;;;;;;4.40;3.63;;;;;;;;;;4926787;29;20764;-84
2023/06/27 04:36:53;;;;;;;4.50;3.00;;;;;;;;;;4926621;29;20424;-85
2023/06/27 04:39:19;;;;;;;6.03;3.43;;;;;;;;;;4958710;28;20976;-84
2023/06/27 04:41:45;;;;;;;8.90;4.07;;;;;;;;;;4942865;29;20405;-84
2023/06/27 04:44:11;;;;;;;5.73;3.50;;;;;;;;;;4926508;29;20872;-85
2023/06/27 04:46:37;;;;;;;6.20;3.17;;;;;;;;;;4959440;29;20426;-85
2023/06/27 04:49:03;;;;;;;4.33;3.40;;;;;;;;;;4957927;28;20428;-85
2023/06/27 04:51:29;;;;;;;4.57;3.30;;;;;;;;;;4926416;29;20412;-85
2023/06/27 04:53:56;;;;;;;6.23;3.30;;;;;;;;;;4959128;28;20474;-85
2023/06/27 04:56:27;;;;;;;5.70;3.43;;;;;;;;;;4958246;29;20424;-84
2023/06/27 04:58:53;;;;;;;4.30;3.47;;;;;;;;;;4958466;29;20523;-85
2023/06/27 05:01:19;;;;;;;5.83;3.93;;;;;;;;;;4959477;29;20463;-84
2023/06/27 05:03:45;;;;;;;7.40;3.70;;;;;;;;;;4959656;29;20475;-84
2023/06/27 05:06:11;;;;;;;5.87;3.00;;;;;;;;;;4959123;29;20468;-84
2023/06/27 05:08:37;;;;;;;7.80;3.73;;;;;;;;;;4959102;29;20995;-84
2023/06/27 05:11:04;;;;;;;10.40;4.73;;;;;;;;;;4957692;29;20450;-84
2023/06/27 05:13:30;;;;;;;4.40;3.20;;;;;;;;;;4957837;29;20425;-84
2023/06/27 05:15:56;;;;;;;6.87;4.00;;;;;;;;;;4958783;29;20424;-84
2023/06/27 05:18:23;;;;;;;8.07;4.17;;;;;;;;;;4926841;29;20395;-84
2023/06/27 05:20:49;;;;;;;7.03;4.57;;;;;;;;;;4959236;29;20415;-84
2023/06/27 05:23:15;;;;;;;8.03;3.30;;;;;;;;;;4957826;28;20507;-84
2023/06/27 05:25:41;;;;;;;9.80;4.37;;;;;;;;;;4958943;29;20463;-84
2023/06/27 05:28:08;;;;;;;10.17;4.07;;;;;;;;;;4926026;29;20891;-84
2023/06/27 05:30:34;;;;;;;11.17;3.10;;;;;;;;;;4925764;29;20428;-84
2023/06/27 05:33:01;;;;;;;7.10;3.90;;;;;;;;;;4942010;29;20779;-84
2023/06/27 05:35:28;;;;;;;13.27;3.40;;;;;;;;;;4942184;29;20397;-84
2023/06/27 05:37:54;;;;;;;11.63;3.70;;;;;;;;;;4958952;28;20384;-84
2023/06/27 05:40:20;;;;;;;10.57;3.03;;;;;;;;;;4957233;28;20421;-84
2023/06/27 05:42:46;;;;;;;5.87;3.83;;;;;;;;;;4958696;29;20409;-84
2023/06/27 05:45:12;;;;;;;15.47;4.00;;;;;;;;;;4958670;29;20914;-84
2023/06/27 05:47:38;;;;;;;8.80;3.47;;;;;;;;;;4957819;28;20904;-84
2023/06/27 05:50:04;;;;;;;6.83;3.33;;;;;;;;;;4958701;29;20408;-84
2023/06/27 05:52:30;;;;;;;11.47;3.77;;;;;;;;;;4957825;28;20416;-84
2023/06/27 05:54:56;;;;;;;10.20;4.17;;;;;;;;;;4963960;28;20962;-85
2023/06/27 05:57:22;;;;;;;9.60;3.30;;;;;;;;;;4961812;29;20400;-83
2023/06/27 05:59:48;;;;;;;10.60;3.40;;;;;;;;;;4959395;28;20431;-84
2023/06/27 06:02:14;;;;;;;14.53;3.83;;;;;;;;;;4959866;29;20405;-84
2023/06/27 06:04:40;;;;;;;8.63;3.20;;;;;;;;;;4959233;29;20529;-84
2023/06/27 06:07:06;;;;;;;6.70;3.43;;;;;;;;;;4941661;29;20429;-84
2023/06/27 06:09:32;;;;;;;10.07;3.50;;;;;;;;;;4959326;29;20408;-83
2023/06/27 06:11:58;;;;;;;6.40;3.10;;;;;;;;;;4957379;28;20456;-85
2023/06/27 06:14:24;;;;;;;9.83;3.33;;;;;;;;;;4957149;28;20444;-84
2023/06/27 06:16:50;;;;;;;7.60;3.37;;;;;;;;;;4958757;29;20808;-84
2023/06/27 06:19:16;;;;;;;5.60;2.73;;;;;;;;;;4925184;29;20429;-83
2023/06/27 06:21:42;;;;;;;9.60;3.00;;;;;;;;;;4957263;28;20784;-83
2023/06/27 06:24:08;;;;;;;10.70;3.50;;;;;;;;;;4958297;29;20552;-84
2023/06/27 06:26:38;;;;;;;11.83;3.27;;;;;;;;;;4957442;28;20432;-83
2023/06/27 06:29:04;;;;;;;9.63;2.80;;;;;;;;;;4957792;29;20552;-83
2023/06/27 06:31:30;;;;;;;12.07;3.00;;;;;;;;;;4957393;29;20412;-82
2023/06/27 06:33:57;;;;;;;12.87;3.10;;;;;;;;;;4941286;29;20777;-84
2023/06/27 06:36:23;;;;;;;9.50;2.97;;;;;;;;;;4958057;29;20849;-83
2023/06/27 06:38:49;;;;;;;6.70;2.70;;;;;;;;;;4957870;29;20427;-83
2023/06/27 06:41:15;;;;;;;7.17;2.50;;;;;;;;;;4924464;29;20399;-84
2023/06/27 06:43:41;;;;;;;6.07;2.70;;;;;;;;;;4956608;28;20704;-84
2023/06/27 06:46:07;;;;;;;12.67;2.80;;;;;;;;;;4957281;29;20519;-84
2023/06/27 06:48:33;;;;;;;14.53;3.60;;;;;;;;;;4957048;28;20398;-79
2023/06/27 06:50:59;;;;;;;6.87;2.90;;;;;;;;;;4956639;28;20913;-80
2023/06/27 06:53:25;;;;;;;10.53;3.43;;;;;;;;;;4941015;29;20472;-79
2023/06/27 06:55:51;;;;;;;8.17;2.60;;;;;;;;;;4957596;29;20471;-80
2023/06/27 06:58:17;;;;;;;9.90;2.93;;;;;;;;;;4957188;29;20414;-80
2023/06/27 07:00:43;;;;;;;5.20;3.00;;;;;;;;;;4957860;29;20383;-80
2023/06/27 07:03:09;;;;;;;4.60;2.40;;;;;;;;;;4957333;29;20371;-80
2023/06/27 07:05:41;;;;;;;7.63;3.07;;;;;;;;;;4957404;29;20439;-80
2023/06/27 07:08:08;;;;;;;11.40;3.33;;;;;;;;;;4957491;29;20416;-80
2023/06/27 07:10:34;;;;;;;17.20;3.30;;;;;;;;;;4957333;29;20408;-80
2023/06/27 07:13:01;;;;;;;6.10;2.77;;;;;;;;;;4957085;29;20384;-79
2023/06/27 07:15:27;;;;;;;16.67;3.40;;;;;;;;;;4957233;29;20494;-79
2023/06/27 07:17:54;;;;;;;5.30;2.40;;;;;;;;;;4955955;28;20426;-79
2023/06/27 07:20:20;;;;;;;7.80;2.93;;;;;;;;;;4957256;29;20421;-79
2023/06/27 07:22:46;;;;;;;8.37;2.83;;;;;;;;;;4940197;29;20889;-79
2023/06/27 07:25:13;;;;;;;10.93;2.93;;;;;;;;;;4956835;29;20519;-79
2023/06/27 07:27:39;;;;;;;12.93;3.03;;;;;;;;;;4957390;29;20781;-79
2023/06/27 07:30:05;;;;;;;5.60;2.77;;;;;;;;;;4956903;29;20412;-80
2023/06/27 07:32:31;;;;;;;14.27;3.53;;;;;;;;;;4957364;29;20418;-80
2023/06/27 07:34:57;;;;;;;13.00;3.00;;;;;;;;;;4956916;29;20418;-80
2023/06/27 07:37:23;;;;;;;11.27;3.67;;;;;;;;;;4955255;28;20440;-80
2023/06/27 07:39:49;;;;;;;8.70;2.87;;;;;;;;;;4957199;29;20408;-80
2023/06/27 07:42:17;;;;;;;8.43;2.77;;;;;;;;;;4956424;29;20401;-80
2023/06/27 07:44:43;;;;;;;5.93;2.57;;;;;;;;;;4923878;29;20571;-80
2023/06/27 07:47:09;;;;;;;5.70;2.53;;;;;;;;;;4956418;29;20411;-79
2023/06/27 07:49:37;;;;;;;8.73;3.10;;;;;;;;;;4955334;28;20490;-80
2023/06/27 07:52:03;;;;;;;8.77;2.63;;;;;;;;;;4956182;29;20387;-84
2023/06/27 07:54:29;;;;;;;10.63;2.77;;;;;;;;;;4936324;29;20535;-79
2023/06/27 07:56:56;;;;;;;8.03;3.23;;;;;;;;;;4953986;28;20829;-79
2023/06/27 07:59:22;;;;;;;15.53;2.53;;;;;;;;;;4923120;29;20420;-78
2023/06/27 08:01:48;;;;;;;15.47;2.83;;;;;;;;;;4922493;29;20436;-78
2023/06/27 08:04:15;;;;;;;5.70;2.50;;;;;;;;;;4938758;29;20380;-79
2023/06/27 08:06:41;;;;;;;8.00;2.73;;;;;;;;;;4923343;29;20424;-79
2023/06/27 08:09:07;;;;;;;9.80;3.47;;;;;;;;;;4953506;28;20472;-80
2023/06/27 08:11:33;;;;;;;13.73;2.90;;;;;;;;;;4922995;29;20813;-80
2023/06/27 08:13:59;;;;;;;9.33;2.33;;;;;;;;;;4955484;29;20439;-81
2023/06/27 08:16:25;;;;;;;9.90;2.93;;;;;;;;;;4937556;29;20497;-81
2023/06/27 08:18:51;;;;;;;5.20;2.63;;;;;;;;;;4955352;29;20483;-81
2023/06/27 08:21:17;;;;;;;11.43;2.80;;;;;;;;;;4955597;29;20857;-79
2023/06/27 08:23:44;;;;;;;10.23;3.60;;;;;;;;;;4953604;28;20930;-80
2023/06/27 08:26:14;;;;;;;6.73;2.23;;;;;;;;;;4938585;29;20468;-79
2023/06/27 08:28:40;;;;;;;7.40;2.30;;;;;;;;;;4954520;29;20422;-79
2023/06/27 08:31:06;;;;;;;6.63;1.97;;;;;;;;;;4953056;28;20773;-80
2023/06/27 08:33:32;;;;;;;9.67;2.70;;;;;;;;;;4955496;29;20385;-81
2023/06/27 08:35:58;;;;;;;8.00;2.07;;;;;;;;;;4955146;29;20389;-81
2023/06/27 08:38:24;;;;;;;5.87;2.13;;;;;;;;;;4921505;29;20724;-80
2023/06/27 08:40:56;;;;;;;6.30;2.57;;;;;;;;;;4955879;29;20700;-80
2023/06/27 08:43:23;;;;;;;7.00;2.23;;;;;;;;;;4954062;28;20390;-81
2023/06/27 08:45:49;;;;;;;5.60;2.40;;;;;;;;;;4953145;29;20956;-80
2023/06/27 08:48:16;;;;;;;10.90;2.43;;;;;;;;;;4955027;29;20413;-80
2023/06/27 08:50:43;;;;;;;8.00;2.33;;;;;;;;;;4955846;29;20401;-79
2023/06/27 08:53:14;;;;;;;18.20;3.80;;;;;;;;;;4953309;28;20466;-79
2023/06/27 08:56:00;;;;;;;6.80;2.60;;;;;;;;;;4953377;29;20493;-79
2023/06/27 08:58:34;;;;;;;7.20;2.53;;;;;;;;;;4950386;29;20428;-79
2023/06/27 09:01:00;;;;;;;2.97;2.10;;;;;;;;;;4937425;29;20404;-79
2023/06/27 09:03:27;;;;;;;5.17;2.00;;;;;;;;;;4922505;29;20424;-79
2023/06/27 09:05:54;;;;;;;5.50;1.90;;;;;;;;;;4937836;29;20451;-79
2023/06/27 09:08:20;;;;;;;4.67;1.80;;;;;;;;;;4937057;29;20780;-79
2023/06/27 09:10:46;;;;;;;4.00;2.20;;;;;;;;;;4922115;29;20403;-80
2023/06/27 09:13:13;;;;;;;5.90;2.37;;;;;;;;;;4940621;29;20409;-79
2023/06/27 09:15:39;;;;;;;5.40;2.30;;;;;;;;;;4940721;29;20443;-79
2023/06/27 09:18:05;;;;;;;11.70;2.50;;;;;;;;;;4959505;29;20391;-79
2023/06/27 09:20:31;;;;;;;3.87;2.10;;;;;;;;;;4959206;29;20415;-79
2023/06/27 09:22:58;;;;;;;7.13;2.30;;;;;;;;;;4941215;29;20412;-79
2023/06/27 09:25:24;;;;;;;4.77;1.63;;;;;;;;;;4925452;29;20474;-79
2023/06/27 09:27:51;;;;;;;4.00;1.87;;;;;;;;;;4958441;29;20412;-81
2023/06/27 09:30:17;;;;;;;6.60;1.50;;;;;;;;;;4957704;29;20491;-80
2023/06/27 09:32:52;;;;;;;7.50;1.97;;;;;;;;;;4941424;29;20440;-79
2023/06/27 09:35:19;;;;;;;8.20;1.80;;;;;;;;;;4958123;29;20487;-79
2023/06/27 09:37:45;;;;;;;7.97;2.57;;;;;;;;;;4940915;29;20452;-78
2023/06/27 09:40:21;;;;;;;6.40;1.90;;;;;;;;;;4958202;29;20451;-79
2023/06/27 09:42:50;;;;;;;4.60;1.90;;;;;;;;;;4941257;29;20415;-78
2023/06/27 09:45:17;;;;;;;7.07;2.50;;;;;;;;;;4939862;29;20492;-80
2023/06/27 09:47:43;;;;;;;9.63;2.03;;;;;;;;;;4941319;29;20813;-78
2023/06/27 09:50:09;;;;;;;12.00;2.70;;;;;;;;;;4925292;29;20507;-79
2023/06/27 09:52:35;;;;;;;4.27;1.83;;;;;;;;;;4924395;29;20727;-80
2023/06/27 09:55:01;;;;;;;3.07;1.50;;;;;;;;;;4957685;29;20431;-79
2023/06/27 09:57:30;;;;;;;5.47;1.77;;;;;;;;;;4956118;29;20453;-79
2023/06/27 09:59:59;;;;;;;9.47;2.30;;;;;;;;;;4957201;29;20475;-79
2023/06/27 10:02:29;;;;;;;7.53;2.30;;;;;;;;;;4957949;29;20907;-79
2023/06/27 10:04:55;;;;;;;8.17;2.90;;;;;;;;;;4958001;29;20463;-79
2023/06/27 10:07:21;;;;;;;5.47;1.80;;;;;;;;;;4955425;28;20429;-79
2023/06/27 10:09:47;;;;;;;7.10;2.03;;;;;;;;;;4957881;29;20452;-78
2023/06/27 10:12:14;;;;;;;6.23;2.80;;;;;;;;;;4956654;28;20408;-79
2023/06/27 10:14:41;;;;;;;3.30;1.70;;;;;;;;;;4957740;29;20807;-78
2023/06/27 10:17:07;;;;;;;9.53;2.60;;;;;;;;;;4958151;29;20413;-79
2023/06/27 10:19:34;;;;;;;8.57;2.13;;;;;;;;;;4940600;29;20404;-78
2023/06/27 10:22:01;;;;;;;6.73;2.00;;;;;;;;;;4924584;29;20847;-78
2023/06/27 10:24:29;;;;;;;6.33;2.40;;;;;;;;;;4939843;29;20870;-78
2023/06/27 10:26:58;;;;;;;3.63;1.80;;;;;;;;;;4958413;29;20409;-79
2023/06/27 10:29:30;;;;;;;9.67;2.33;;;;;;;;;;4955484;28;20404;-78
2023/06/27 10:31:56;;;;;;;7.00;2.43;;;;;;;;;;4957518;29;20400;-79
2023/06/27 10:34:32;;;;;;;9.00;2.37;;;;;;;;;;4956211;28;20503;-79
2023/06/27 10:36:59;;;;;;;7.40;2.00;;;;;;;;;;4955798;28;20835;-78
2023/06/27 10:39:27;;;;;;;4.03;1.50;;;;;;;;;;4957360;29;20408;-78
2023/06/27 10:42:03;;;;;;;7.70;2.10;;;;;;;;;;4956237;28;20451;-80
2023/06/27 10:44:29;;;;;;;9.40;1.80;;;;;;;;;;4956473;29;20939;-79
2023/06/27 10:47:15;;;;;;;4.60;2.10;;;;;;;;;;4957051;29;20483;-79
2023/06/27 10:49:41;;;;;;;5.63;1.87;;;;;;;;;;4956270;28;20401;-78
2023/06/27 10:52:10;;;;;;;6.30;1.73;;;;;;;;;;4955234;28;20424;-78
2023/06/27 10:54:42;;;;;;;6.57;1.87;;;;;;;;;;4956328;28;20539;-79
2023/06/27 10:57:08;;;;;;;4.43;1.90;;;;;;;;;;4955474;29;20805;-79
2023/06/27 10:59:34;;;;;;;4.83;1.87;;;;;;;;;;4953440;28;20428;-77
2023/06/27 11:02:02;;;;;;;8.83;1.80;;;;;;;;;;4940476;29;20852;-78
2023/06/27 11:04:41;;;;;;;7.97;1.80;;;;;;;;;;4957002;29;20400;-79
2023/06/27 11:07:12;;;;;;;7.03;1.83;;;;;;;;;;4954632;29;20425;-79
2023/06/27 11:09:39;;;;;;;4.03;1.60;;;;;;;;;;4956929;29;20405;-79
2023/06/27 11:12:11;;;;;;;7.17;2.30;;;;;;;;;;4955457;29;20431;-79
2023/06/27 11:14:41;;;;;;;5.97;1.37;;;;;;;;;;4954280;29;20767;-79
2023/06/27 11:17:07;;;;;;;5.83;2.10;;;;;;;;;;4956682;29;20424;-78
2023/06/27 11:19:35;;;;;;;2.83;1.70;;;;;;;;;;4956254;29;20409;-79
2023/06/27 11:22:01;;;;;;;6.00;1.77;;;;;;;;;;4953867;28;20471;-80
2023/06/27 11:24:29;;;;;;;9.90;2.13;;;;;;;;;;4954925;28;20416;-78
2023/06/27 11:26:55;;;;;;;2.83;1.53;;;;;;;;;;4923558;29;20467;-79
2023/06/27 11:29:22;;;;;;;3.90;1.60;;;;;;;;;;4953670;28;20443;-78
2023/06/27 11:31:48;;;;;;;6.20;1.40;;;;;;;;;;4923386;29;20420;-79
2023/06/27 11:34:15;;;;;;;4.43;1.87;;;;;;;;;;4956025;28;20404;-80
2023/06/27 11:36:41;;;;;;;4.00;1.33;;;;;;;;;;4937935;29;20404;-80
2023/06/27 11:39:10;;;;;;;6.93;2.37;;;;;;;;;;4954245;28;20421;-79
2023/06/27 11:41:39;;;;;;;6.87;1.90;;;;;;;;;;4955958;29;20396;-79
2023/06/27 11:44:09;;;;;;;9.43;2.00;;;;;;;;;;4955178;29;20439;-78
2023/06/27 11:46:35;;;;;;;3.60;1.53;;;;;;;;;;4954383;29;20480;-78
2023/06/27 11:49:01;;;;;;;2.60;1.50;;;;;;;;;;4954554;29;20771;-79
2023/06/27 11:51:38;;;;;;;4.13;1.40;;;;;;;;;;4955023;29;20413;-78
2023/06/27 11:54:07;;;;;;;5.17;1.83;;;;;;;;;;4954149;28;20466;-78
2023/06/27 11:56:33;;;;;;;8.23;1.87;;;;;;;;;;4954240;29;20435;-79
2023/06/27 11:59:00;;;;;;;3.87;1.63;;;;;;;;;;4936679;29;20419;-80
2023/06/27 12:01:27;;;;;;;5.23;3.20;;;;;;;;;;4953235;29;20467;-78
2023/06/27 12:03:53;;;;;;;3.57;1.90;;;;;;;;;;4938514;29;20412;-78
2023/06/27 12:06:24;;;;;;;4.80;1.80;;;;;;;;;;4921313;29;20464;-77
2023/06/27 12:08:50;;;;;;;5.57;1.83;;;;;;;;;;4955552;29;20412;-78
2023/06/27 12:11:16;;;;;;;4.63;1.73;;;;;;;;;;4922522;29;20420;-78
2023/06/27 12:13:43;;;;;;;8.80;2.10;;;;;;;;;;4937766;29;20423;-78
2023/06/27 12:16:25;;;;;;;5.27;1.90;;;;;;;;;;4955708;29;20444;-78
2023/06/27 12:18:51;;;;;;;3.77;1.73;;;;;;;;;;4954981;29;20420;-78
2023/06/27 12:21:17;;;;;;;4.43;1.83;;;;;;;;;;4921506;29;20452;-80
2023/06/27 12:23:43;;;;;;;5.40;2.13;;;;;;;;;;4922509;29;20449;-78
2023/06/27 12:26:09;;;;;;;4.97;1.70;;;;;;;;;;4938227;29;21076;-78
2023/06/27 12:28:54;;;;;;;5.73;2.10;;;;;;;;;;4953085;29;20537;-78
2023/06/27 12:31:19;;;;;;;6.37;2.40;;;;;;;;;;4953820;29;20420;-78
2023/06/27 12:33:46;;;;;;;2.90;1.47;;;;;;;;;;4938288;29;20431;-78
2023/06/27 12:36:14;;;;;;;5.33;1.80;;;;;;;;;;4921884;29;20488;-78
2023/06/27 12:38:40;;;;;;;4.77;2.00;;;;;;;;;;4954864;29;20467;-80
2023/06/27 12:41:06;;;;;;;7.27;2.50;;;;;;;;;;4954138;29;20823;-79
2023/06/27 12:43:32;;;;;;;6.33;2.10;;;;;;;;;;4921113;29;20420;-79
2023/06/27 12:46:02;;;;;;;9.20;1.80;;;;;;;;;;4921812;28;20471;-78
2023/06/27 12:48:28;;;;;;;4.57;1.80;;;;;;;;;;4941390;29;20523;-78
2023/06/27 12:50:54;;;;;;;8.50;2.10;;;;;;;;;;4958604;29;20436;-78
2023/06/27 12:53:20;;;;;;;7.43;1.70;;;;;;;;;;4957472;28;20526;-77
2023/06/27 12:55:46;;;;;;;4.47;1.90;;;;;;;;;;4957736;28;20879;-77
2023/06/27 12:58:12;;;;;;;3.53;1.60;;;;;;;;;;4941106;29;20404;-79
2023/06/27 13:00:39;;;;;;;2.93;1.73;;;;;;;;;;4955662;28;21028;-78
2023/06/27 13:03:06;;;;;;;3.63;2.10;;;;;;;;;;4957340;29;20425;-78
2023/06/27 13:05:32;;;;;;;3.67;1.70;;;;;;;;;;4957189;29;20471;-78
2023/06/27 13:07:58;;;;;;;2.10;1.47;;;;;;;;;;4958066;28;20428;-78
2023/06/27 13:10:28;;;;;;;2.83;1.93;;;;;;;;;;4957772;28;20421;-78
2023/06/27 13:12:54;;;;;;;4.10;2.00;;;;;;;;;;4958256;29;20417;-78
2023/06/27 13:15:20;;;;;;;4.80;1.83;;;;;;;;;;4958848;29;20408;-78
2023/06/27 13:17:47;;;;;;;3.20;1.73;;;;;;;;;;4942062;29;20408;-78
2023/06/27 13:20:14;;;;;;;2.60;1.60;;;;;;;;;;4956935;28;20503;-78
2023/06/27 13:22:41;;;;;;;5.47;1.97;;;;;;;;;;4958095;29;20416;-79
2023/06/27 13:25:07;;;;;;;10.53;1.93;;;;;;;;;;4956460;29;20460;-79
2023/06/27 13:27:33;;;;;;;7.67;2.17;;;;;;;;;;4957283;29;20402;-78
2023/06/27 13:29:59;;;;;;;3.50;1.90;;;;;;;;;;4957841;28;20991;-78
2023/06/27 13:32:26;;;;;;;5.80;1.80;;;;;;;;;;4941654;29;20405;-78
2023/06/27 13:34:55;;;;;;;6.03;2.17;;;;;;;;;;4926436;29;20780;-78
2023/06/27 13:37:21;;;;;;;3.20;2.10;;;;;;;;;;4944668;29;20408;-78
2023/06/27 13:39:47;;;;;;;3.77;1.50;;;;;;;;;;4958873;29;20499;-78
2023/06/27 13:42:13;;;;;;;3.10;1.67;;;;;;;;;;4927458;29;20405;-78
2023/06/27 13:44:39;;;;;;;3.93;2.40;;;;;;;;;;4943663;29;20792;-78
2023/06/27 13:47:06;;;;;;;5.30;1.63;;;;;;;;;;4943537;29;20456;-77
2023/06/27 13:49:31;;;;;;;5.43;1.67;;;;;;;;;;4963050;28;20408;-79
2023/06/27 13:51:57;;;;;;;8.10;1.90;;;;;;;;;;4929886;29;20444;-78
2023/06/27 13:54:23;;;;;;;3.83;1.77;;;;;;;;;;4930318;29;20471;-78
2023/06/27 13:56:50;;;;;;;6.60;2.00;;;;;;;;;;4930436;29;20448;-78
2023/06/27 13:59:16;;;;;;;5.57;1.97;;;;;;;;;;4928309;29;20424;-77
2023/06/27 14:01:42;;;;;;;4.37;1.83;;;;;;;;;;4959040;29;20440;-77
2023/06/27 14:04:10;;;;;;;5.40;2.00;;;;;;;;;;4941055;29;20400;-77
2023/06/27 14:06:36;;;;;;;3.73;1.60;;;;;;;;;;4940674;29;20471;-78
2023/06/27 14:09:02;;;;;;;3.70;1.40;;;;;;;;;;4924933;29;20853;-77
2023/06/27 14:11:28;;;;;;;3.97;1.50;;;;;;;;;;4957742;29;20420;-78
2023/06/27 14:13:54;;;;;;;5.73;1.57;;;;;;;;;;4924894;29;20471;-78
2023/06/27 14:16:20;;;;;;;2.40;1.43;;;;;;;;;;4940600;29;20409;-78
2023/06/27 14:18:47;;;;;;;5.60;1.40;;;;;;;;;;4940306;29;20421;-77
2023/06/27 14:21:13;;;;;;;5.10;1.80;;;;;;;;;;4940686;29;20404;-78
2023/06/27 14:23:40;;;;;;;4.20;1.70;;;;;;;;;;4957423;29;20806;-78
2023/06/27 14:26:07;;;;;;;3.97;1.60;;;;;;;;;;4955953;29;20460;-78
2023/06/27 14:28:33;;;;;;;3.93;1.73;;;;;;;;;;4957385;29;20499;-79
2023/06/27 14:31:00;;;;;;;3.17;1.30;;;;;;;;;;4957237;29;20893;-78
2023/06/27 14:33:26;;;;;;;2.67;1.57;;;;;;;;;;4955774;28;20452;-77
2023/06/27 14:35:52;;;;;;;4.20;1.60;;;;;;;;;;4940504;29;20404;-78
2023/06/27 14:38:18;;;;;;;2.73;1.83;;;;;;;;;;4955671;28;20416;-78